createdAt,value
2018-08-27T00:00:48.957Z,14.24
2018-08-27T00:01:59.195Z,14.09
2018-08-27T00:03:09.477Z,14.13
2018-08-27T00:04:19.623Z,13.94
2018-08-27T00:05:29.794Z,14.03
2018-08-27T00:06:40.082Z,14
2018-08-27T00:07:50.311Z,13.88
2018-08-27T00:08:59.848Z,13.94
2018-08-27T00:10:09.598Z,13.84
2018-08-27T00:11:19.719Z,13.84
2018-08-27T00:12:29.574Z,13.84
2018-08-27T00:13:39.808Z,13.74
2018-08-27T00:14:49.975Z,13.7
2018-08-27T00:16:00.101Z,13.74
2018-08-27T00:17:10.278Z,13.76
2018-08-27T00:18:20.459Z,13.7
2018-08-27T00:19:30.634Z,13.73
2018-08-27T00:20:40.741Z,13.56
2018-08-27T00:21:50.966Z,13.69
2018-08-27T00:23:01.141Z,13.64
2018-08-27T00:24:11.452Z,13.61
2018-08-27T00:25:21.737Z,13.59
2018-08-27T00:26:31.945Z,13.66
2018-08-27T00:27:42.080Z,13.59
2018-08-27T00:28:52.343Z,13.66
2018-08-27T00:30:02.544Z,13.61
2018-08-27T00:31:12.770Z,13.63
2018-08-27T00:32:22.968Z,13.63
2018-08-27T00:33:32.957Z,13.69
2018-08-27T00:34:43.123Z,13.7
2018-08-27T00:35:53.250Z,13.79
2018-08-27T00:37:03.360Z,13.73
2018-08-27T00:38:13.479Z,13.85
2018-08-27T00:39:23.699Z,13.84
2018-08-27T00:40:33.898Z,13.88
2018-08-27T00:41:44.029Z,13.92
2018-08-27T00:42:53.895Z,13.89
2018-08-27T00:44:04.066Z,13.88
2018-08-27T00:45:14.230Z,13.92
2018-08-27T00:46:24.359Z,13.91
2018-08-27T00:47:34.506Z,13.86
2018-08-27T00:48:44.640Z,13.92
2018-08-27T00:49:54.884Z,13.89
2018-08-27T00:51:04.744Z,13.89
2018-08-27T00:52:14.878Z,13.89
2018-08-27T00:53:24.766Z,13.89
2018-08-27T00:54:34.907Z,13.82
2018-08-27T00:55:45.055Z,13.85
2018-08-27T00:56:55.227Z,13.88
2018-08-27T00:58:05.434Z,13.84
2018-08-27T00:59:15.553Z,13.82
2018-08-27T01:00:25.747Z,13.81
2018-08-27T01:01:35.891Z,13.82
2018-08-27T01:02:45.873Z,13.71
2018-08-27T01:03:55.702Z,13.74
2018-08-27T01:05:05.867Z,13.73
2018-08-27T01:06:15.754Z,13.59
2018-08-27T01:07:25.910Z,13.7
2018-08-27T01:08:36.036Z,13.58
2018-08-27T01:09:45.978Z,13.67
2018-08-27T01:10:56.105Z,13.54
2018-08-27T01:12:06.247Z,13.54
2018-08-27T01:13:16.392Z,13.56
2018-08-27T01:14:26.535Z,13.48
2018-08-27T01:15:36.799Z,13.51
2018-08-27T01:16:47.002Z,13.44
2018-08-27T01:17:57.226Z,13.38
2018-08-27T01:19:07.385Z,13.38
2018-08-27T01:20:17.521Z,13.44
2018-08-27T01:21:27.646Z,13.44
2018-08-27T01:22:38.109Z,13.41
2018-08-27T01:23:48.048Z,13.36
2018-08-27T01:24:57.929Z,13.34
2018-08-27T01:26:08.061Z,13.36
2018-08-27T01:27:17.833Z,13.34
2018-08-27T01:28:27.949Z,13.36
2018-08-27T01:29:37.817Z,13.33
2018-08-27T01:30:47.933Z,13.3
2018-08-27T01:31:58.064Z,13.21
2018-08-27T01:33:08.192Z,13.31
2018-08-27T01:34:18.222Z,13.29
2018-08-27T01:35:28.341Z,13.18
2018-08-27T01:36:38.471Z,13.16
2018-08-27T01:37:48.626Z,13.16
2018-08-27T01:38:58.862Z,13.19
2018-08-27T01:40:09.084Z,13.26
2018-08-27T01:41:19.299Z,13.21
2018-08-27T01:42:29.274Z,13.12
2018-08-27T01:43:39.427Z,13.16
2018-08-27T01:44:49.537Z,13.22
2018-08-27T01:45:59.659Z,13.21
2018-08-27T01:47:09.778Z,13.23
2018-08-27T01:48:19.754Z,13.22
2018-08-27T01:49:29.621Z,13.21
2018-08-27T01:50:39.750Z,13.29
2018-08-27T01:51:50.027Z,13.31
2018-08-27T01:53:00.150Z,13.37
2018-08-27T01:54:10.300Z,13.37
2018-08-27T01:55:20.460Z,13.4
2018-08-27T01:56:30.677Z,13.33
2018-08-27T01:57:41.095Z,13.34
2018-08-27T01:58:51.215Z,13.34
2018-08-27T02:00:01.436Z,13.37
2018-08-27T02:01:12.567Z,13.31
2018-08-27T02:02:22.792Z,13.31
2018-08-27T02:03:33.049Z,13.31
2018-08-27T02:04:42.551Z,13.29
2018-08-27T02:05:52.887Z,13.23
2018-08-27T02:07:03.124Z,13.21
2018-08-27T02:08:13.342Z,13.16
2018-08-27T02:09:22.844Z,13.21
2018-08-27T02:10:33.024Z,13.09
2018-08-27T02:11:42.892Z,13.09
2018-08-27T02:12:53.015Z,13.01
2018-08-27T02:14:03.160Z,13.08
2018-08-27T02:15:13.300Z,13.06
2018-08-27T02:16:23.162Z,12.95
2018-08-27T02:17:33.310Z,12.95
2018-08-27T02:18:43.508Z,12.92
2018-08-27T02:19:53.694Z,12.89
2018-08-27T02:21:04.103Z,12.82
2018-08-27T02:22:14.190Z,12.81
2018-08-27T02:23:24.446Z,12.88
2018-08-27T02:24:34.573Z,12.8
2018-08-27T02:25:44.493Z,12.9
2018-08-27T02:26:54.313Z,12.92
2018-08-27T02:28:04.440Z,12.82
2018-08-27T02:29:14.211Z,12.8
2018-08-27T02:30:24.341Z,12.88
2018-08-27T02:31:34.510Z,12.84
2018-08-27T02:32:44.663Z,12.93
2018-08-27T02:33:54.852Z,12.77
2018-08-27T02:35:05.310Z,12.81
2018-08-27T02:36:15.390Z,12.89
2018-08-27T02:37:25.284Z,12.89
2018-08-27T02:38:35.283Z,12.9
2018-08-27T02:39:45.169Z,12.81
2018-08-27T02:40:55.490Z,12.92
2018-08-27T02:42:05.609Z,12.85
2018-08-27T02:43:15.731Z,12.75
2018-08-27T02:44:25.597Z,12.82
2018-08-27T02:45:35.789Z,12.82
2018-08-27T02:46:45.973Z,12.72
2018-08-27T02:47:56.087Z,12.71
2018-08-27T02:49:06.255Z,12.68
2018-08-27T02:50:16.120Z,12.71
2018-08-27T02:51:25.994Z,12.66
2018-08-27T02:52:36.154Z,12.62
2018-08-27T02:53:46.293Z,12.63
2018-08-27T02:54:56.506Z,12.6
2018-08-27T02:56:06.423Z,12.64
2018-08-27T02:57:16.300Z,12.55
2018-08-27T02:58:25.930Z,12.59
2018-08-27T02:59:36.374Z,12.55
2018-08-27T03:00:46.573Z,12.53
2018-08-27T03:01:56.764Z,12.56
2018-08-27T03:03:06.902Z,12.55
2018-08-27T03:04:17.135Z,12.57
2018-08-27T03:05:27.339Z,12.56
2018-08-27T03:06:37.320Z,12.71
2018-08-27T03:07:47.431Z,12.6
2018-08-27T03:08:57.706Z,12.59
2018-08-27T03:10:07.831Z,12.57
2018-08-27T03:11:17.986Z,12.56
2018-08-27T03:12:27.881Z,12.62
2018-08-27T03:13:37.824Z,12.57
2018-08-27T03:14:47.714Z,12.62
2018-08-27T03:15:57.842Z,12.57
2018-08-27T03:17:07.963Z,12.63
2018-08-27T03:18:18.476Z,12.71
2018-08-27T03:19:28.794Z,12.64
2018-08-27T03:20:38.924Z,12.71
2018-08-27T03:21:50.033Z,12.74
2018-08-27T03:23:01.296Z,12.63
2018-08-27T03:24:11.663Z,12.71
2018-08-27T03:25:21.554Z,12.63
2018-08-27T03:26:31.504Z,12.68
2018-08-27T03:27:42.030Z,12.72
2018-08-27T03:28:51.898Z,12.7
2018-08-27T03:30:01.814Z,12.75
2018-08-27T03:31:11.963Z,12.78
2018-08-27T03:32:21.857Z,12.85
2018-08-27T03:33:32.226Z,12.81
2018-08-27T03:34:42.422Z,12.82
2018-08-27T03:35:52.322Z,12.84
2018-08-27T03:37:02.511Z,12.81
2018-08-27T03:38:13.004Z,12.77
2018-08-27T03:39:23.130Z,12.78
2018-08-27T03:40:33.389Z,12.72
2018-08-27T03:41:43.376Z,12.68
2018-08-27T03:42:53.521Z,12.64
2018-08-27T03:44:03.753Z,12.63
2018-08-27T03:45:13.888Z,12.64
2018-08-27T03:46:24.028Z,12.68
2018-08-27T03:47:34.134Z,12.71
2018-08-27T03:48:44.749Z,12.63
2018-08-27T03:49:54.754Z,12.64
2018-08-27T03:51:04.881Z,12.62
2018-08-27T03:52:15.010Z,12.6
2018-08-27T03:53:25.164Z,12.64
2018-08-27T03:54:35.400Z,12.7
2018-08-27T03:55:45.553Z,12.71
2018-08-27T03:56:55.736Z,12.68
2018-08-27T03:58:05.888Z,12.63
2018-08-27T03:59:15.774Z,12.7
2018-08-27T04:00:26.058Z,12.64
2018-08-27T04:01:36.294Z,12.66
2018-08-27T04:02:46.165Z,12.7
2018-08-27T04:03:56.304Z,12.75
2018-08-27T04:05:06.453Z,12.66
2018-08-27T04:06:16.369Z,12.77
2018-08-27T04:07:26.491Z,12.74
2018-08-27T04:08:36.624Z,12.78
2018-08-27T04:09:46.806Z,12.8
2018-08-27T04:10:56.532Z,12.85
2018-08-27T04:12:06.501Z,12.8
2018-08-27T04:13:16.624Z,12.85
2018-08-27T04:14:26.773Z,12.82
2018-08-27T04:15:36.956Z,12.92
2018-08-27T04:16:47.093Z,12.82
2018-08-27T04:17:57.440Z,12.8
2018-08-27T04:19:07.619Z,12.84
2018-08-27T04:20:17.863Z,12.82
2018-08-27T04:21:28.051Z,12.78
2018-08-27T04:22:38.323Z,12.85
2018-08-27T04:23:48.236Z,12.84
2018-08-27T04:24:58.354Z,12.85
2018-08-27T04:26:08.720Z,12.84
2018-08-27T04:27:18.858Z,12.78
2018-08-27T04:28:29.000Z,12.75
2018-08-27T04:29:39.214Z,12.75
2018-08-27T04:30:49.382Z,12.66
2018-08-27T04:31:59.563Z,12.74
2018-08-27T04:33:09.714Z,12.74
2018-08-27T04:34:19.877Z,12.84
2018-08-27T04:35:29.992Z,12.82
2018-08-27T04:36:40.140Z,12.82
2018-08-27T04:37:50.051Z,12.81
2018-08-27T04:39:00.205Z,12.82
2018-08-27T04:40:10.068Z,12.75
2018-08-27T04:41:20.230Z,12.78
2018-08-27T04:42:30.476Z,12.81
2018-08-27T04:43:40.858Z,12.82
2018-08-27T04:44:50.790Z,12.81
2018-08-27T04:46:00.580Z,12.81
2018-08-27T04:47:10.996Z,12.8
2018-08-27T04:48:21.220Z,12.81
2018-08-27T04:49:31.076Z,12.82
2018-08-27T04:50:41.455Z,12.82
2018-08-27T04:51:51.441Z,12.82
2018-08-27T04:53:01.325Z,12.81
2018-08-27T04:54:11.484Z,12.74
2018-08-27T04:55:21.631Z,12.78
2018-08-27T04:56:31.804Z,12.75
2018-08-27T04:57:42.146Z,12.8
2018-08-27T04:58:52.329Z,12.74
2018-08-27T05:00:02.457Z,12.78
2018-08-27T05:01:12.688Z,12.8
2018-08-27T05:02:22.866Z,12.84
2018-08-27T05:03:33.130Z,12.81
2018-08-27T05:04:43.322Z,12.84
2018-08-27T05:05:53.552Z,12.82
2018-08-27T05:07:03.729Z,12.89
2018-08-27T05:08:13.904Z,12.9
2018-08-27T05:09:24.272Z,12.9
2018-08-27T05:10:34.448Z,12.97
2018-08-27T05:11:44.794Z,12.96
2018-08-27T05:12:54.656Z,12.95
2018-08-27T05:14:04.416Z,12.97
2018-08-27T05:15:14.570Z,13.03
2018-08-27T05:16:24.739Z,12.96
2018-08-27T05:17:34.951Z,13.06
2018-08-27T05:18:45.081Z,13.04
2018-08-27T05:19:54.977Z,13.09
2018-08-27T05:21:04.844Z,13.06
2018-08-27T05:22:15.025Z,13.08
2018-08-27T05:23:25.156Z,13.18
2018-08-27T05:24:35.309Z,13.13
2018-08-27T05:25:45.458Z,13.19
2018-08-27T05:26:55.314Z,13.18
2018-08-27T05:28:05.674Z,13.23
2018-08-27T05:29:15.802Z,13.26
2018-08-27T05:30:25.967Z,13.26
2018-08-27T05:31:36.223Z,13.36
2018-08-27T05:32:46.484Z,13.34
2018-08-27T05:33:57.708Z,13.37
2018-08-27T05:35:08.150Z,13.34
2018-08-27T05:36:18.372Z,13.38
2018-08-27T05:37:28.575Z,13.37
2018-08-27T05:38:39.167Z,13.46
2018-08-27T05:39:49.643Z,13.37
2018-08-27T05:40:59.771Z,13.51
2018-08-27T05:42:09.912Z,13.46
2018-08-27T05:43:20.093Z,13.48
2018-08-27T05:44:31.413Z,13.55
2018-08-27T05:45:41.537Z,13.49
2018-08-27T05:46:51.750Z,13.56
2018-08-27T05:48:02.190Z,13.49
2018-08-27T05:49:12.077Z,13.55
2018-08-27T05:50:22.243Z,13.56
2018-08-27T05:51:32.365Z,13.61
2018-08-27T05:52:42.512Z,13.7
2018-08-27T05:53:52.681Z,13.79
2018-08-27T05:55:02.899Z,13.88
2018-08-27T05:56:13.125Z,13.84
2018-08-27T05:57:23.441Z,13.91
2018-08-27T05:58:33.575Z,13.86
2018-08-27T05:59:43.957Z,14.07
2018-08-27T06:00:54.107Z,14.02
2018-08-27T06:02:04.785Z,14.1
2018-08-27T06:03:14.937Z,14.14
2018-08-27T06:04:25.096Z,14.11
2018-08-27T06:05:35.259Z,14.14
2018-08-27T06:06:45.145Z,14.16
2018-08-27T06:07:55.331Z,14.11
2018-08-27T06:09:05.304Z,14.14
2018-08-27T06:10:15.845Z,14.16
2018-08-27T06:11:25.704Z,14.16
2018-08-27T06:12:35.850Z,14.26
2018-08-27T06:13:45.731Z,14.21
2018-08-27T06:14:55.660Z,14.26
2018-08-27T06:16:05.816Z,14.29
2018-08-27T06:17:16.651Z,14.24
2018-08-27T06:18:26.626Z,14.32
2018-08-27T06:19:36.955Z,14.39
2018-08-27T06:20:47.224Z,14.37
2018-08-27T06:21:57.732Z,14.36
2018-08-27T06:23:08.207Z,14.51
2018-08-27T06:24:18.525Z,14.52
2018-08-27T06:25:28.759Z,14.58
2018-08-27T06:26:38.914Z,14.52
2018-08-27T06:27:49.068Z,14.56
2018-08-27T06:28:59.314Z,14.62
2018-08-27T06:30:09.466Z,14.54
2018-08-27T06:31:19.747Z,14.65
2018-08-27T06:32:30.161Z,14.74
2018-08-27T06:33:40.622Z,14.67
2018-08-27T06:34:50.512Z,14.66
2018-08-27T06:36:00.706Z,14.69
2018-08-27T06:37:10.932Z,14.69
2018-08-27T06:38:21.107Z,14.69
2018-08-27T06:39:31.356Z,14.67
2018-08-27T06:40:41.290Z,14.69
2018-08-27T06:41:51.852Z,14.67
2018-08-27T06:43:01.998Z,14.67
2018-08-27T06:44:11.930Z,14.74
2018-08-27T06:45:22.074Z,14.7
2018-08-27T06:46:31.972Z,14.77
2018-08-27T06:47:42.155Z,14.7
2018-08-27T06:48:52.147Z,14.74
2018-08-27T06:50:02.371Z,14.8
2018-08-27T06:51:12.594Z,14.74
2018-08-27T06:52:22.791Z,14.75
2018-08-27T06:53:32.972Z,14.8
2018-08-27T06:54:43.324Z,14.77
2018-08-27T06:55:53.542Z,14.83
2018-08-27T06:57:03.710Z,14.85
2018-08-27T06:58:13.911Z,14.84
2018-08-27T06:59:24.136Z,14.78
2018-08-27T07:00:34.387Z,14.85
2018-08-27T07:01:44.615Z,14.91
2018-08-27T07:02:55.052Z,14.9
2018-08-27T07:04:05.075Z,14.98
2018-08-27T07:05:15.294Z,14.93
2018-08-27T07:06:25.437Z,15
2018-08-27T07:07:35.359Z,15.05
2018-08-27T07:08:45.686Z,15.13
2018-08-27T07:09:56.386Z,15.09
2018-08-27T07:11:06.542Z,15.08
2018-08-27T07:12:16.674Z,15.09
2018-08-27T07:13:26.837Z,15.11
2018-08-27T07:14:36.989Z,15.09
2018-08-27T07:15:47.304Z,15.06
2018-08-27T07:16:57.541Z,15.13
2018-08-27T07:18:07.777Z,15.08
2018-08-27T07:19:17.914Z,15.08
2018-08-27T07:20:27.463Z,15.11
2018-08-27T07:21:37.634Z,15.11
2018-08-27T07:22:48.006Z,15.13
2018-08-27T07:23:59.202Z,15.08
2018-08-27T07:25:09.360Z,15.09
2018-08-27T07:26:19.720Z,15.14
2018-08-27T07:27:30.353Z,15.11
2018-08-27T07:28:40.974Z,15.13
2018-08-27T07:29:51.108Z,15.14
2018-08-27T07:31:01.262Z,15.06
2018-08-27T07:32:11.687Z,15.09
2018-08-27T07:33:21.986Z,14.99
2018-08-27T07:34:32.195Z,14.93
2018-08-27T07:35:42.088Z,14.96
2018-08-27T07:36:51.982Z,14.96
2018-08-27T07:38:02.117Z,14.84
2018-08-27T07:39:12.471Z,14.83
2018-08-27T07:40:22.381Z,14.83
2018-08-27T07:41:32.244Z,14.81
2018-08-27T07:42:42.121Z,14.81
2018-08-27T07:43:52.289Z,14.78
2018-08-27T07:45:02.485Z,14.66
2018-08-27T07:46:12.629Z,14.65
2018-08-27T07:47:22.768Z,14.59
2018-08-27T07:48:33.016Z,14.59
2018-08-27T07:49:43.144Z,14.66
2018-08-27T07:50:53.455Z,14.6
2018-08-27T07:52:03.686Z,14.74
2018-08-27T07:53:13.923Z,14.65
2018-08-27T07:54:24.118Z,14.67
2018-08-27T07:55:34.301Z,14.7
2018-08-27T07:56:44.657Z,14.72
2018-08-27T07:57:54.828Z,14.78
2018-08-27T07:59:04.983Z,14.77
2018-08-27T08:00:15.363Z,14.78
2018-08-27T08:01:25.263Z,14.84
2018-08-27T08:02:35.506Z,14.91
2018-08-27T08:03:46.702Z,14.95
2018-08-27T08:04:56.913Z,14.96
2018-08-27T08:06:07.077Z,14.95
2018-08-27T08:07:17.638Z,15
2018-08-27T08:08:28.306Z,15.06
2018-08-27T08:09:38.481Z,15.03
2018-08-27T08:10:48.741Z,15.03
2018-08-27T08:11:58.611Z,15.13
2018-08-27T08:13:08.753Z,15.13
2018-08-27T08:14:18.884Z,15.08
2018-08-27T08:15:29.037Z,15.13
2018-08-27T08:16:39.234Z,15.06
2018-08-27T08:17:49.156Z,15.06
2018-08-27T08:18:59.317Z,14.99
2018-08-27T08:20:09.442Z,15
2018-08-27T08:21:19.322Z,15.02
2018-08-27T08:22:29.665Z,14.98
2018-08-27T08:23:39.799Z,14.93
2018-08-27T08:24:49.870Z,14.99
2018-08-27T08:26:00.053Z,15.11
2018-08-27T08:27:10.459Z,15.03
2018-08-27T08:28:20.372Z,14.98
2018-08-27T08:29:30.580Z,15.03
2018-08-27T08:30:40.722Z,15.06
2018-08-27T08:31:50.588Z,14.95
2018-08-27T08:33:00.850Z,14.88
2018-08-27T08:34:11.232Z,14.88
2018-08-27T08:35:21.392Z,15
2018-08-27T08:36:31.768Z,14.84
2018-08-27T08:37:41.921Z,14.95
2018-08-27T08:38:51.799Z,15.02
2018-08-27T08:40:02.702Z,14.96
2018-08-27T08:41:13.009Z,15
2018-08-27T08:42:23.197Z,15.02
2018-08-27T08:43:33.069Z,15.03
2018-08-27T08:44:42.696Z,14.93
2018-08-27T08:45:52.571Z,14.87
2018-08-27T08:47:02.689Z,14.96
2018-08-27T08:48:12.825Z,14.85
2018-08-27T08:49:22.973Z,14.87
2018-08-27T08:50:33.258Z,14.78
2018-08-27T08:51:42.608Z,14.78
2018-08-27T08:52:52.490Z,14.74
2018-08-27T08:54:02.665Z,14.69
2018-08-27T08:55:12.544Z,14.78
2018-08-27T08:56:22.681Z,14.77
2018-08-27T08:57:32.859Z,14.81
2018-08-27T08:58:43.058Z,14.83
2018-08-27T08:59:53.193Z,14.78
2018-08-27T09:01:03.378Z,14.88
2018-08-27T09:02:13.826Z,14.88
2018-08-27T09:03:23.984Z,14.87
2018-08-27T09:04:34.125Z,14.88
2018-08-27T09:05:44.312Z,15.02
2018-08-27T09:06:54.484Z,14.93
2018-08-27T09:08:04.609Z,15.08
2018-08-27T09:09:15.049Z,15.11
2018-08-27T09:10:25.181Z,15.03
2018-08-27T09:11:35.345Z,15.03
2018-08-27T09:12:45.589Z,15.11
2018-08-27T09:13:55.776Z,15.06
2018-08-27T09:15:06.060Z,15.21
2018-08-27T09:16:16.406Z,15.25
2018-08-27T09:17:26.845Z,15.21
2018-08-27T09:18:37.236Z,15.27
2018-08-27T09:19:47.039Z,15.24
2018-08-27T09:20:57.408Z,15.36
2018-08-27T09:22:07.559Z,15.23
2018-08-27T09:23:17.700Z,15.3
2018-08-27T09:24:27.851Z,15.35
2018-08-27T09:25:38.014Z,15.32
2018-08-27T09:26:48.252Z,15.4
2018-08-27T09:27:58.487Z,15.45
2018-08-27T09:29:08.357Z,15.53
2018-08-27T09:30:18.971Z,15.5
2018-08-27T09:31:29.461Z,15.5
2018-08-27T09:32:39.752Z,15.58
2018-08-27T09:33:50.015Z,15.53
2018-08-27T09:35:00.205Z,15.57
2018-08-27T09:36:10.429Z,15.54
2018-08-27T09:37:19.969Z,15.66
2018-08-27T09:38:29.869Z,15.66
2018-08-27T09:39:40.214Z,15.66
2018-08-27T09:40:50.346Z,15.68
2018-08-27T09:42:00.230Z,15.78
2018-08-27T09:43:10.612Z,15.8
2018-08-27T09:44:20.794Z,15.79
2018-08-27T09:45:30.927Z,15.75
2018-08-27T09:46:41.306Z,15.78
2018-08-27T09:47:51.543Z,15.8
2018-08-27T09:49:01.715Z,15.8
2018-08-27T09:50:11.838Z,15.84
2018-08-27T09:51:21.961Z,15.8
2018-08-27T09:52:32.178Z,15.84
2018-08-27T09:53:42.405Z,15.82
2018-08-27T09:54:52.222Z,15.8
2018-08-27T09:56:02.427Z,15.73
2018-08-27T09:57:12.608Z,15.66
2018-08-27T09:58:22.974Z,15.66
2018-08-27T09:59:33.157Z,15.7
2018-08-27T10:00:44.281Z,15.63
2018-08-27T10:01:54.427Z,15.7
2018-08-27T10:03:04.591Z,15.69
2018-08-27T10:04:14.793Z,15.72
2018-08-27T10:05:24.954Z,15.73
2018-08-27T10:06:34.836Z,15.76
2018-08-27T10:07:45.075Z,15.8
2018-08-27T10:08:55.048Z,15.94
2018-08-27T10:10:05.455Z,15.92
2018-08-27T10:11:15.692Z,16.04
2018-08-27T10:12:26.051Z,16.13
2018-08-27T10:13:36.214Z,16.13
2018-08-27T10:14:46.429Z,16.13
2018-08-27T10:15:56.754Z,16.28
2018-08-27T10:17:06.930Z,16.29
2018-08-27T10:18:17.159Z,16.46
2018-08-27T10:19:28.277Z,16.47
2018-08-27T10:20:38.445Z,16.42
2018-08-27T10:21:48.714Z,16.42
2018-08-27T10:22:58.937Z,16.49
2018-08-27T10:24:09.228Z,16.51
2018-08-27T10:25:19.407Z,16.47
2018-08-27T10:26:29.451Z,16.5
2018-08-27T10:27:39.727Z,16.51
2018-08-27T10:28:49.985Z,16.59
2018-08-27T10:30:00.567Z,16.57
2018-08-27T10:31:10.819Z,16.69
2018-08-27T10:32:20.976Z,16.68
2018-08-27T10:33:31.137Z,16.71
2018-08-27T10:34:41.141Z,16.72
2018-08-27T10:35:51.375Z,16.74
2018-08-27T10:37:01.592Z,16.66
2018-08-27T10:38:11.913Z,16.72
2018-08-27T10:39:22.056Z,16.72
2018-08-27T10:40:32.396Z,16.8
2018-08-27T10:41:42.182Z,16.72
2018-08-27T10:42:52.259Z,16.79
2018-08-27T10:44:02.864Z,16.72
2018-08-27T10:45:13.143Z,16.79
2018-08-27T10:46:23.379Z,16.72
2018-08-27T10:47:33.598Z,16.74
2018-08-27T10:48:43.971Z,16.69
2018-08-27T10:49:54.109Z,16.74
2018-08-27T10:51:04.271Z,16.66
2018-08-27T10:52:14.455Z,16.75
2018-08-27T10:53:24.341Z,16.69
2018-08-27T10:54:34.472Z,16.86
2018-08-27T10:55:44.370Z,16.87
2018-08-27T10:56:54.714Z,16.87
2018-08-27T10:58:04.905Z,16.94
2018-08-27T10:59:15.072Z,17.01
2018-08-27T11:00:25.175Z,16.98
2018-08-27T11:01:35.384Z,17.09
2018-08-27T11:02:45.524Z,17.06
2018-08-27T11:03:55.740Z,17.11
2018-08-27T11:05:06.074Z,17.21
2018-08-27T11:06:16.464Z,17.2
2018-08-27T11:07:26.620Z,17.2
2018-08-27T11:08:36.755Z,17.27
2018-08-27T11:09:46.906Z,17.31
2018-08-27T11:10:57.060Z,17.31
2018-08-27T11:12:07.310Z,17.2
2018-08-27T11:13:17.538Z,17.28
2018-08-27T11:14:28.086Z,17.24
2018-08-27T11:15:38.264Z,17.36
2018-08-27T11:16:48.477Z,17.35
2018-08-27T11:17:58.734Z,17.38
2018-08-27T11:19:08.888Z,17.42
2018-08-27T11:20:19.276Z,17.42
2018-08-27T11:21:29.641Z,17.45
2018-08-27T11:22:39.814Z,17.45
2018-08-27T11:23:49.823Z,17.47
2018-08-27T11:25:00.007Z,17.52
2018-08-27T11:26:09.725Z,17.52
2018-08-27T11:27:19.809Z,17.42
2018-08-27T11:28:29.953Z,17.46
2018-08-27T11:29:40.309Z,17.47
2018-08-27T11:30:50.442Z,17.49
2018-08-27T11:32:00.602Z,17.55
2018-08-27T11:33:11.758Z,17.55
2018-08-27T11:34:22.129Z,17.6
2018-08-27T11:35:32.343Z,17.62
2018-08-27T11:36:42.476Z,17.64
2018-08-27T11:37:52.626Z,17.57
2018-08-27T11:39:02.790Z,17.6
2018-08-27T11:40:13.040Z,17.61
2018-08-27T11:41:23.228Z,17.62
2018-08-27T11:42:33.441Z,17.62
2018-08-27T11:43:43.597Z,17.67
2018-08-27T11:44:54.065Z,17.6
2018-08-27T11:46:04.446Z,17.62
2018-08-27T11:47:14.616Z,17.68
2018-08-27T11:48:25.014Z,17.67
2018-08-27T11:49:35.165Z,17.64
2018-08-27T11:50:45.667Z,17.72
2018-08-27T11:51:56.342Z,17.61
2018-08-27T11:53:06.725Z,17.72
2018-08-27T11:54:16.855Z,17.58
2018-08-27T11:55:27.013Z,17.61
2018-08-27T11:56:37.378Z,17.64
2018-08-27T11:57:47.542Z,17.68
2018-08-27T11:58:57.682Z,17.67
2018-08-27T12:00:07.865Z,17.67
2018-08-27T12:01:17.936Z,17.6
2018-08-27T12:02:28.307Z,17.58
2018-08-27T12:03:38.468Z,17.61
2018-08-27T12:04:48.637Z,17.54
2018-08-27T12:05:58.884Z,17.52
2018-08-27T12:07:09.057Z,17.45
2018-08-27T12:08:19.309Z,17.54
2018-08-27T12:09:29.428Z,17.46
2018-08-27T12:10:39.607Z,17.52
2018-08-27T12:11:49.381Z,17.62
2018-08-27T12:12:59.520Z,17.62
2018-08-27T12:14:09.506Z,17.73
2018-08-27T12:15:19.401Z,17.89
2018-08-27T12:16:29.589Z,18
2018-08-27T12:17:39.401Z,18.19
2018-08-27T12:18:49.266Z,18.37
2018-08-27T12:19:59.196Z,18.42
2018-08-27T12:21:09.404Z,18.4
2018-08-27T12:22:19.328Z,18.4
2018-08-27T12:23:29.520Z,18.49
2018-08-27T12:24:39.667Z,18.37
2018-08-27T12:25:49.450Z,18.44
2018-08-27T12:26:59.624Z,18.37
2018-08-27T12:28:09.788Z,18.47
2018-08-27T12:29:20.265Z,18.41
2018-08-27T12:30:30.210Z,18.5
2018-08-27T12:31:40.437Z,18.42
2018-08-27T12:32:50.620Z,18.47
2018-08-27T12:34:00.570Z,18.52
2018-08-27T12:35:10.704Z,18.55
2018-08-27T12:36:20.928Z,18.6
2018-08-27T12:37:31.073Z,18.65
2018-08-27T12:38:41.312Z,18.72
2018-08-27T12:39:51.475Z,18.67
2018-08-27T12:41:02.011Z,18.71
2018-08-27T12:42:12.922Z,18.79
2018-08-27T12:43:23.075Z,18.69
2018-08-27T12:44:32.617Z,18.8
2018-08-27T12:45:42.806Z,18.8
2018-08-27T12:46:52.944Z,18.87
2018-08-27T12:48:03.114Z,19
2018-08-27T12:49:13.257Z,19
2018-08-27T12:50:23.475Z,19.05
2018-08-27T12:51:33.611Z,19.12
2018-08-27T12:52:43.495Z,19.13
2018-08-27T12:53:53.660Z,19.19
2018-08-27T12:55:03.909Z,19.28
2018-08-27T12:56:15.103Z,19.21
2018-08-27T12:57:25.448Z,19.34
2018-08-27T12:58:35.909Z,19.48
2018-08-27T12:59:46.365Z,19.53
2018-08-27T13:00:56.544Z,19.52
2018-08-27T13:02:06.942Z,19.63
2018-08-27T13:03:17.103Z,19.63
2018-08-27T13:04:27.279Z,19.64
2018-08-27T13:05:38.039Z,19.64
2018-08-27T13:06:48.348Z,19.56
2018-08-27T13:07:58.883Z,19.53
2018-08-27T13:09:08.904Z,19.6
2018-08-27T13:10:19.084Z,19.6
2018-08-27T13:11:29.663Z,19.68
2018-08-27T13:12:40.392Z,19.74
2018-08-27T13:13:50.323Z,19.76
2018-08-27T13:15:00.587Z,19.82
2018-08-27T13:16:10.941Z,19.89
2018-08-27T13:17:21.153Z,20.04
2018-08-27T13:18:31.334Z,20.27
2018-08-27T13:19:41.519Z,20.35
2018-08-27T13:20:51.441Z,20.41
2018-08-27T13:22:01.603Z,20.43
2018-08-27T13:23:11.784Z,20.53
2018-08-27T13:24:21.942Z,20.58
2018-08-27T13:25:32.320Z,20.82
2018-08-27T13:26:42.794Z,20.82
2018-08-27T13:27:52.679Z,20.81
2018-08-27T13:29:02.856Z,20.78
2018-08-27T13:30:12.847Z,20.67
2018-08-27T13:31:23.209Z,20.58
2018-08-27T13:32:34.023Z,20.48
2018-08-27T13:33:44.189Z,20.39
2018-08-27T13:34:54.507Z,20.39
2018-08-27T13:36:04.701Z,20.31
2018-08-27T13:37:14.871Z,20.28
2018-08-27T13:38:25.042Z,20.17
2018-08-27T13:39:35.227Z,20.28
2018-08-27T13:40:45.365Z,20.23
2018-08-27T13:41:56.043Z,20.2
2018-08-27T13:43:06.356Z,20.23
2018-08-27T13:44:16.621Z,20.2
2018-08-27T13:45:27.068Z,20.23
2018-08-27T13:46:37.210Z,20.23
2018-08-27T13:47:47.444Z,20.26
2018-08-27T13:48:57.748Z,20.21
2018-08-27T13:50:08.322Z,20.2
2018-08-27T13:51:18.412Z,20.14
2018-08-27T13:52:28.652Z,20.19
2018-08-27T13:53:38.890Z,20.23
2018-08-27T13:54:49.291Z,20.14
2018-08-27T13:56:00.402Z,20.16
2018-08-27T13:57:10.566Z,20.04
2018-08-27T13:58:20.829Z,20.03
2018-08-27T13:59:31.034Z,20
2018-08-27T14:00:41.195Z,19.97
2018-08-27T14:01:51.648Z,19.95
2018-08-27T14:03:01.830Z,19.89
2018-08-27T14:04:11.983Z,19.97
2018-08-27T14:05:22.077Z,19.9
2018-08-27T14:06:32.975Z,19.89
2018-08-27T14:07:42.912Z,19.98
2018-08-27T14:08:53.311Z,19.88
2018-08-27T14:10:03.473Z,19.98
2018-08-27T14:11:13.633Z,19.98
2018-08-27T14:12:24.232Z,19.93
2018-08-27T14:13:34.356Z,19.88
2018-08-27T14:14:44.882Z,19.97
2018-08-27T14:15:55.763Z,19.92
2018-08-27T14:17:05.896Z,19.83
2018-08-27T14:18:16.046Z,19.85
2018-08-27T14:19:26.669Z,19.79
2018-08-27T14:20:37.503Z,19.83
2018-08-27T14:21:48.306Z,19.74
2018-08-27T14:22:58.458Z,19.7
2018-08-27T14:24:08.682Z,19.65
2018-08-27T14:25:18.864Z,19.68
2018-08-27T14:26:28.978Z,19.46
2018-08-27T14:27:39.217Z,19.6
2018-08-27T14:28:49.456Z,19.5
2018-08-27T14:29:59.979Z,19.45
2018-08-27T14:31:10.248Z,19.39
2018-08-27T14:32:20.450Z,19.33
2018-08-27T14:33:30.800Z,19.21
2018-08-27T14:34:40.993Z,19.18
2018-08-27T14:35:51.572Z,19.13
2018-08-27T14:37:01.440Z,19.19
2018-08-27T14:38:11.236Z,19.09
2018-08-27T14:39:21.666Z,19.1
2018-08-27T14:40:32.315Z,19.18
2018-08-27T14:41:42.878Z,19.13
2018-08-27T14:42:53.179Z,19.02
2018-08-27T14:44:03.386Z,18.97
2018-08-27T14:45:13.767Z,18.93
2018-08-27T14:46:23.942Z,18.88
2018-08-27T14:47:34.105Z,18.95
2018-08-27T14:48:44.337Z,18.97
2018-08-27T14:49:54.691Z,18.94
2018-08-27T14:51:05.010Z,18.94
2018-08-27T14:52:15.222Z,18.86
2018-08-27T14:53:25.521Z,18.84
2018-08-27T14:54:35.783Z,18.9
2018-08-27T14:55:45.685Z,18.97
2018-08-27T14:56:55.844Z,18.95
2018-08-27T14:58:05.983Z,18.95
2018-08-27T14:59:15.869Z,19
2018-08-27T15:00:26.044Z,18.95
2018-08-27T15:01:36.231Z,18.9
2018-08-27T15:02:46.376Z,19
2018-08-27T15:03:56.570Z,18.93
2018-08-27T15:05:07.009Z,18.91
2018-08-27T15:06:17.188Z,18.93
2018-08-27T15:07:27.041Z,18.84
2018-08-27T15:08:36.944Z,18.94